sensor_id;sensor_type;location;lat;lon;timestamp;temperature;humidity
27544;DHT22;17996;51.056;3.656;2022-09-25T00:00:34;12.40;99.90
27544;DHT22;17996;51.056;3.656;2022-09-25T00:03:00;12.40;99.90
27544;DHT22;17996;51.056;3.656;2022-09-25T00:05:26;12.40;99.90
27544;DHT22;17996;51.056;3.656;2022-09-25T00:07:51;12.40;99.90
27544;DHT22;17996;51.056;3.656;2022-09-25T00:10:17;12.40;99.90
27544;DHT22;17996;51.056;3.656;2022-09-25T00:12:43;12.30;99.90
27544;DHT22;17996;51.056;3.656;2022-09-25T00:15:09;12.30;99.90
27544;DHT22;17996;51.056;3.656;2022-09-25T00:17:35;12.30;99.90
27544;DHT22;17996;51.056;3.656;2022-09-25T00:20:01;12.30;99.90
27544;DHT22;17996;51.056;3.656;2022-09-25T00:22:27;12.30;99.90
27544;DHT22;17996;51.056;3.656;2022-09-25T00:24:54;12.30;99.90
27544;DHT22;17996;51.056;3.656;2022-09-25T00:27:20;12.20;99.90
27544;DHT22;17996;51.056;3.656;2022-09-25T00:29:46;12.20;99.90
27544;DHT22;17996;51.056;3.656;2022-09-25T00:32:12;12.20;99.90
27544;DHT22;17996;51.056;3.656;2022-09-25T00:34:38;12.20;99.90
27544;DHT22;17996;51.056;3.656;2022-09-25T00:37:05;12.20;99.90
27544;DHT22;17996;51.056;3.656;2022-09-25T00:39:31;12.20;99.90
27544;DHT22;17996;51.056;3.656;2022-09-25T00:41:58;12.10;99.90
27544;DHT22;17996;51.056;3.656;2022-09-25T00:44:47;12.10;99.90
27544;DHT22;17996;51.056;3.656;2022-09-25T00:50:02;12.10;99.90
27544;DHT22;17996;51.056;3.656;2022-09-25T00:52:29;12.00;99.90
27544;DHT22;17996;51.056;3.656;2022-09-25T00:55:00;11.90;99.90
27544;DHT22;17996;51.056;3.656;2022-09-25T00:57:30;12.00;99.90
27544;DHT22;17996;51.056;3.656;2022-09-25T01:00:03;11.90;99.90
27544;DHT22;17996;51.056;3.656;2022-09-25T01:02:34;11.90;99.90
27544;DHT22;17996;51.056;3.656;2022-09-25T01:05:04;11.90;99.90
27544;DHT22;17996;51.056;3.656;2022-09-25T01:07:33;11.90;99.90
27544;DHT22;17996;51.056;3.656;2022-09-25T01:10:00;11.90;99.90
27544;DHT22;17996;51.056;3.656;2022-09-25T01:12:27;11.80;99.90
27544;DHT22;17996;51.056;3.656;2022-09-25T01:14:53;11.80;99.90
27544;DHT22;17996;51.056;3.656;2022-09-25T01:17:33;11.80;99.90
27544;DHT22;17996;51.056;3.656;2022-09-25T01:23:15;11.80;99.90
27544;DHT22;17996;51.056;3.656;2022-09-25T01:31:09;11.80;99.90
27544;DHT22;17996;51.056;3.656;2022-09-25T01:33:54;11.70;99.90
27544;DHT22;17996;51.056;3.656;2022-09-25T01:36:31;11.80;99.90
27544;DHT22;17996;51.056;3.656;2022-09-25T01:39:07;11.80;99.90
27544;DHT22;17996;51.056;3.656;2022-09-25T01:41:45;11.90;99.90
27544;DHT22;17996;51.056;3.656;2022-09-25T01:44:22;11.90;99.90
27544;DHT22;17996;51.056;3.656;2022-09-25T01:46:53;12.00;99.90
27544;DHT22;17996;51.056;3.656;2022-09-25T01:49:27;12.00;99.90
27544;DHT22;17996;51.056;3.656;2022-09-25T01:51:55;11.90;99.90
27544;DHT22;17996;51.056;3.656;2022-09-25T01:54:29;12.00;99.90
27544;DHT22;17996;51.056;3.656;2022-09-25T01:59:55;12.00;99.90
27544;DHT22;17996;51.056;3.656;2022-09-25T02:02:27;11.90;99.90
27544;DHT22;17996;51.056;3.656;2022-09-25T02:05:05;12.00;99.90
27544;DHT22;17996;51.056;3.656;2022-09-25T02:07:36;11.90;99.90
27544;DHT22;17996;51.056;3.656;2022-09-25T02:10:11;11.80;99.90
27544;DHT22;17996;51.056;3.656;2022-09-25T02:12:44;11.80;99.90
27544;DHT22;17996;51.056;3.656;2022-09-25T02:15:32;11.80;99.90
27544;DHT22;17996;51.056;3.656;2022-09-25T02:18:01;11.80;99.90
27544;DHT22;17996;51.056;3.656;2022-09-25T02:20:52;11.80;99.90
27544;DHT22;17996;51.056;3.656;2022-09-25T02:24:23;11.80;99.90
27544;DHT22;17996;51.056;3.656;2022-09-25T02:26:29;11.70;99.90
27544;DHT22;17996;51.056;3.656;2022-09-25T02:28:56;11.60;99.90
27544;DHT22;17996;51.056;3.656;2022-09-25T02:31:27;11.60;99.90
27544;DHT22;17996;51.056;3.656;2022-09-25T02:33:56;11.50;99.90
27544;DHT22;17996;51.056;3.656;2022-09-25T02:36:22;11.50;99.90
27544;DHT22;17996;51.056;3.656;2022-09-25T02:38:49;11.50;99.90
27544;DHT22;17996;51.056;3.656;2022-09-25T02:41:28;11.40;99.90
27544;DHT22;17996;51.056;3.656;2022-09-25T02:44:09;11.40;99.90
27544;DHT22;17996;51.056;3.656;2022-09-25T02:52:35;11.30;99.90
27544;DHT22;17996;51.056;3.656;2022-09-25T03:00:44;11.20;99.90
27544;DHT22;17996;51.056;3.656;2022-09-25T03:03:14;11.20;99.90
27544;DHT22;17996;51.056;3.656;2022-09-25T03:05:41;11.20;99.90
27544;DHT22;17996;51.056;3.656;2022-09-25T03:08:07;11.20;99.90
27544;DHT22;17996;51.056;3.656;2022-09-25T03:10:52;11.20;99.90
27544;DHT22;17996;51.056;3.656;2022-09-25T03:13:23;11.20;99.90
27544;DHT22;17996;51.056;3.656;2022-09-25T03:15:55;11.20;99.90
27544;DHT22;17996;51.056;3.656;2022-09-25T03:18:23;11.10;99.90
27544;DHT22;17996;51.056;3.656;2022-09-25T03:20:50;11.10;99.90
27544;DHT22;17996;51.056;3.656;2022-09-25T03:23:16;11.20;99.90
27544;DHT22;17996;51.056;3.656;2022-09-25T03:25:42;11.10;99.90
27544;DHT22;17996;51.056;3.656;2022-09-25T03:28:09;11.10;99.90
27544;DHT22;17996;51.056;3.656;2022-09-25T03:30:36;11.10;99.90
27544;DHT22;17996;51.056;3.656;2022-09-25T03:33:09;11.00;99.90
27544;DHT22;17996;51.056;3.656;2022-09-25T03:35:36;11.00;99.90
27544;DHT22;17996;51.056;3.656;2022-09-25T03:38:02;11.00;99.90
27544;DHT22;17996;51.056;3.656;2022-09-25T03:40:28;10.90;99.90
27544;DHT22;17996;51.056;3.656;2022-09-25T03:42:54;10.90;99.90
27544;DHT22;17996;51.056;3.656;2022-09-25T03:45:20;10.90;99.90
27544;DHT22;17996;51.056;3.656;2022-09-25T03:47:45;10.90;99.90
27544;DHT22;17996;51.056;3.656;2022-09-25T03:50:11;10.90;99.90
27544;DHT22;17996;51.056;3.656;2022-09-25T03:52:36;10.80;99.90
27544;DHT22;17996;51.056;3.656;2022-09-25T03:55:03;10.70;99.90
27544;DHT22;17996;51.056;3.656;2022-09-25T03:57:28;10.70;99.90
27544;DHT22;17996;51.056;3.656;2022-09-25T03:59:55;10.80;99.90
27544;DHT22;17996;51.056;3.656;2022-09-25T04:02:28;10.70;99.90
27544;DHT22;17996;51.056;3.656;2022-09-25T04:04:54;10.60;99.90
27544;DHT22;17996;51.056;3.656;2022-09-25T04:07:21;10.70;99.90
27544;DHT22;17996;51.056;3.656;2022-09-25T04:09:47;10.70;99.90
27544;DHT22;17996;51.056;3.656;2022-09-25T04:12:13;10.80;99.90
27544;DHT22;17996;51.056;3.656;2022-09-25T04:14:39;10.90;99.90
27544;DHT22;17996;51.056;3.656;2022-09-25T04:17:07;10.80;99.90
27544;DHT22;17996;51.056;3.656;2022-09-25T04:19:32;10.80;99.90
27544;DHT22;17996;51.056;3.656;2022-09-25T04:21:58;10.80;99.90
27544;DHT22;17996;51.056;3.656;2022-09-25T04:24:24;10.90;99.90
27544;DHT22;17996;51.056;3.656;2022-09-25T04:27:08;10.90;99.90
27544;DHT22;17996;51.056;3.656;2022-09-25T04:29:35;10.90;99.90
27544;DHT22;17996;51.056;3.656;2022-09-25T04:32:02;10.90;99.90
27544;DHT22;17996;51.056;3.656;2022-09-25T04:34:46;11.00;99.90
27544;DHT22;17996;51.056;3.656;2022-09-25T04:37:12;11.10;99.90
27544;DHT22;17996;51.056;3.656;2022-09-25T04:39:39;11.10;99.90
27544;DHT22;17996;51.056;3.656;2022-09-25T04:42:04;11.10;99.90
27544;DHT22;17996;51.056;3.656;2022-09-25T04:44:30;11.10;99.90
27544;DHT22;17996;51.056;3.656;2022-09-25T04:46:56;11.20;99.90
27544;DHT22;17996;51.056;3.656;2022-09-25T04:49:22;11.20;99.90
27544;DHT22;17996;51.056;3.656;2022-09-25T04:51:47;11.30;99.90
27544;DHT22;17996;51.056;3.656;2022-09-25T04:54:13;11.30;99.90
27544;DHT22;17996;51.056;3.656;2022-09-25T04:56:42;11.30;99.90
27544;DHT22;17996;51.056;3.656;2022-09-25T04:59:08;11.40;99.90
27544;DHT22;17996;51.056;3.656;2022-09-25T05:01:36;11.40;99.90
27544;DHT22;17996;51.056;3.656;2022-09-25T05:04:01;11.40;99.90
27544;DHT22;17996;51.056;3.656;2022-09-25T05:06:27;11.30;99.90
27544;DHT22;17996;51.056;3.656;2022-09-25T05:08:54;11.30;99.90
27544;DHT22;17996;51.056;3.656;2022-09-25T05:11:21;11.20;99.90
27544;DHT22;17996;51.056;3.656;2022-09-25T05:13:51;11.20;99.90
27544;DHT22;17996;51.056;3.656;2022-09-25T05:16:17;11.30;99.90
27544;DHT22;17996;51.056;3.656;2022-09-25T05:18:43;11.20;99.90
27544;DHT22;17996;51.056;3.656;2022-09-25T05:21:09;11.20;99.90
27544;DHT22;17996;51.056;3.656;2022-09-25T05:23:34;11.10;99.90
27544;DHT22;17996;51.056;3.656;2022-09-25T05:26:00;11.10;99.90
27544;DHT22;17996;51.056;3.656;2022-09-25T05:28:30;11.00;99.90
27544;DHT22;17996;51.056;3.656;2022-09-25T05:31:00;11.10;99.90
27544;DHT22;17996;51.056;3.656;2022-09-25T05:33:28;11.00;99.90
27544;DHT22;17996;51.056;3.656;2022-09-25T05:35:53;10.90;99.90
27544;DHT22;17996;51.056;3.656;2022-09-25T05:38:19;10.90;99.90
27544;DHT22;17996;51.056;3.656;2022-09-25T05:40:45;10.90;99.90
27544;DHT22;17996;51.056;3.656;2022-09-25T05:43:10;10.90;99.90
27544;DHT22;17996;51.056;3.656;2022-09-25T05:45:39;10.90;99.90
27544;DHT22;17996;51.056;3.656;2022-09-25T05:48:06;10.80;99.90
27544;DHT22;17996;51.056;3.656;2022-09-25T05:50:32;10.90;99.90
27544;DHT22;17996;51.056;3.656;2022-09-25T05:53:00;10.80;99.90
27544;DHT22;17996;51.056;3.656;2022-09-25T05:55:27;10.70;99.90
27544;DHT22;17996;51.056;3.656;2022-09-25T05:57:52;10.70;99.90
27544;DHT22;17996;51.056;3.656;2022-09-25T06:00:18;10.70;99.90
27544;DHT22;17996;51.056;3.656;2022-09-25T06:02:44;10.70;99.90
27544;DHT22;17996;51.056;3.656;2022-09-25T06:05:10;10.70;99.90
27544;DHT22;17996;51.056;3.656;2022-09-25T06:07:36;10.80;99.90
27544;DHT22;17996;51.056;3.656;2022-09-25T06:10:02;10.80;99.90
27544;DHT22;17996;51.056;3.656;2022-09-25T06:12:28;10.80;99.90
27544;DHT22;17996;51.056;3.656;2022-09-25T06:14:54;10.80;99.90
27544;DHT22;17996;51.056;3.656;2022-09-25T06:17:20;10.80;99.90
27544;DHT22;17996;51.056;3.656;2022-09-25T06:19:46;10.70;99.90
27544;DHT22;17996;51.056;3.656;2022-09-25T06:22:12;10.70;99.90
27544;DHT22;17996;51.056;3.656;2022-09-25T06:24:38;10.70;99.90
27544;DHT22;17996;51.056;3.656;2022-09-25T06:27:05;10.80;99.90
27544;DHT22;17996;51.056;3.656;2022-09-25T06:29:31;10.80;99.90
27544;DHT22;17996;51.056;3.656;2022-09-25T06:31:57;10.80;99.90
27544;DHT22;17996;51.056;3.656;2022-09-25T06:34:22;10.80;99.90
27544;DHT22;17996;51.056;3.656;2022-09-25T06:36:48;10.80;99.90
27544;DHT22;17996;51.056;3.656;2022-09-25T06:39:14;10.80;99.90
27544;DHT22;17996;51.056;3.656;2022-09-25T06:41:40;10.80;99.90
27544;DHT22;17996;51.056;3.656;2022-09-25T06:44:06;10.90;99.90
27544;DHT22;17996;51.056;3.656;2022-09-25T06:46:34;10.90;99.90
27544;DHT22;17996;51.056;3.656;2022-09-25T06:49:00;11.00;99.90
27544;DHT22;17996;51.056;3.656;2022-09-25T06:51:26;11.10;99.90
27544;DHT22;17996;51.056;3.656;2022-09-25T06:53:57;11.10;99.90
27544;DHT22;17996;51.056;3.656;2022-09-25T06:56:23;11.10;99.90
27544;DHT22;17996;51.056;3.656;2022-09-25T06:58:49;11.20;99.90
27544;DHT22;17996;51.056;3.656;2022-09-25T07:01:15;11.30;99.90
27544;DHT22;17996;51.056;3.656;2022-09-25T07:03:40;11.30;99.90
27544;DHT22;17996;51.056;3.656;2022-09-25T07:06:14;11.40;99.90
27544;DHT22;17996;51.056;3.656;2022-09-25T07:08:41;11.40;99.90
27544;DHT22;17996;51.056;3.656;2022-09-25T07:11:11;11.40;99.90
27544;DHT22;17996;51.056;3.656;2022-09-25T07:13:37;11.50;99.90
27544;DHT22;17996;51.056;3.656;2022-09-25T07:16:06;11.60;99.90
27544;DHT22;17996;51.056;3.656;2022-09-25T07:18:32;11.60;99.90
27544;DHT22;17996;51.056;3.656;2022-09-25T07:21:09;11.60;99.90
27544;DHT22;17996;51.056;3.656;2022-09-25T07:23:36;11.70;99.90
27544;DHT22;17996;51.056;3.656;2022-09-25T07:26:11;11.90;99.90
27544;DHT22;17996;51.056;3.656;2022-09-25T07:28:38;12.00;99.90
27544;DHT22;17996;51.056;3.656;2022-09-25T07:31:18;12.10;99.90
27544;DHT22;17996;51.056;3.656;2022-09-25T07:33:46;12.10;99.90
27544;DHT22;17996;51.056;3.656;2022-09-25T07:36:13;12.20;99.90
27544;DHT22;17996;51.056;3.656;2022-09-25T07:38:39;12.20;99.90
27544;DHT22;17996;51.056;3.656;2022-09-25T07:41:08;12.30;99.90
27544;DHT22;17996;51.056;3.656;2022-09-25T07:43:34;12.30;99.90
27544;DHT22;17996;51.056;3.656;2022-09-25T07:46:03;12.50;99.90
27544;DHT22;17996;51.056;3.656;2022-09-25T07:48:29;12.60;99.90
27544;DHT22;17996;51.056;3.656;2022-09-25T07:51:00;12.70;99.90
27544;DHT22;17996;51.056;3.656;2022-09-25T07:53:27;12.70;99.90
27544;DHT22;17996;51.056;3.656;2022-09-25T07:56:00;12.80;99.90
27544;DHT22;17996;51.056;3.656;2022-09-25T07:58:27;12.90;99.90
27544;DHT22;17996;51.056;3.656;2022-09-25T08:00:53;13.10;99.90
27544;DHT22;17996;51.056;3.656;2022-09-25T08:03:22;13.10;99.90
27544;DHT22;17996;51.056;3.656;2022-09-25T08:06:03;13.10;99.90
27544;DHT22;17996;51.056;3.656;2022-09-25T08:08:29;13.10;99.90
27544;DHT22;17996;51.056;3.656;2022-09-25T08:10:59;13.10;99.90
27544;DHT22;17996;51.056;3.656;2022-09-25T08:13:26;13.10;99.90
27544;DHT22;17996;51.056;3.656;2022-09-25T08:15:53;13.20;99.90
27544;DHT22;17996;51.056;3.656;2022-09-25T08:18:19;13.30;99.90
27544;DHT22;17996;51.056;3.656;2022-09-25T08:20:45;13.20;99.90
27544;DHT22;17996;51.056;3.656;2022-09-25T08:23:10;13.40;99.90
27544;DHT22;17996;51.056;3.656;2022-09-25T08:25:36;13.30;99.90
27544;DHT22;17996;51.056;3.656;2022-09-25T08:28:02;13.20;99.90
27544;DHT22;17996;51.056;3.656;2022-09-25T08:30:28;13.30;99.90
27544;DHT22;17996;51.056;3.656;2022-09-25T08:32:54;13.20;99.90
27544;DHT22;17996;51.056;3.656;2022-09-25T08:35:20;13.30;99.90
27544;DHT22;17996;51.056;3.656;2022-09-25T08:37:46;13.30;99.90
27544;DHT22;17996;51.056;3.656;2022-09-25T08:40:18;13.20;99.90
27544;DHT22;17996;51.056;3.656;2022-09-25T08:42:46;13.20;99.90
27544;DHT22;17996;51.056;3.656;2022-09-25T08:45:39;13.50;99.90
27544;DHT22;17996;51.056;3.656;2022-09-25T08:48:32;13.50;99.90
27544;DHT22;17996;51.056;3.656;2022-09-25T08:51:18;13.50;99.90
27544;DHT22;17996;51.056;3.656;2022-09-25T08:53:44;13.70;99.90
27544;DHT22;17996;51.056;3.656;2022-09-25T08:56:14;13.80;99.90
27544;DHT22;17996;51.056;3.656;2022-09-25T08:59:51;13.90;99.90
27544;DHT22;17996;51.056;3.656;2022-09-25T09:01:57;13.70;99.90
27544;DHT22;17996;51.056;3.656;2022-09-25T09:04:42;13.50;99.90
27544;DHT22;17996;51.056;3.656;2022-09-25T09:07:16;13.30;99.90
27544;DHT22;17996;51.056;3.656;2022-09-25T09:09:53;13.30;99.90
27544;DHT22;17996;51.056;3.656;2022-09-25T09:12:42;13.20;99.90
27544;DHT22;17996;51.056;3.656;2022-09-25T09:15:37;13.20;99.90
27544;DHT22;17996;51.056;3.656;2022-09-25T09:21:01;13.30;99.90
27544;DHT22;17996;51.056;3.656;2022-09-25T09:23:38;13.30;99.90
27544;DHT22;17996;51.056;3.656;2022-09-25T09:26:14;13.40;99.90
27544;DHT22;17996;51.056;3.656;2022-09-25T09:36:38;13.70;99.90
27544;DHT22;17996;51.056;3.656;2022-09-25T09:42:00;14.00;99.90
27544;DHT22;17996;51.056;3.656;2022-09-25T09:44:33;14.20;99.90
27544;DHT22;17996;51.056;3.656;2022-09-25T09:49:38;14.40;99.90
27544;DHT22;17996;51.056;3.656;2022-09-25T09:52:23;14.50;99.90
27544;DHT22;17996;51.056;3.656;2022-09-25T09:57:46;14.60;99.90
27544;DHT22;17996;51.056;3.656;2022-09-25T10:00:15;14.80;99.90
27544;DHT22;17996;51.056;3.656;2022-09-25T10:03:17;14.90;99.90
27544;DHT22;17996;51.056;3.656;2022-09-25T10:08:08;14.90;99.90
27544;DHT22;17996;51.056;3.656;2022-09-25T10:10:36;14.90;99.90
27544;DHT22;17996;51.056;3.656;2022-09-25T10:13:05;14.90;99.90
27544;DHT22;17996;51.056;3.656;2022-09-25T10:15:51;14.80;99.90
27544;DHT22;17996;51.056;3.656;2022-09-25T10:18:19;14.80;99.90
27544;DHT22;17996;51.056;3.656;2022-09-25T10:21:11;14.80;99.90
27544;DHT22;17996;51.056;3.656;2022-09-25T10:23:41;14.80;99.90
27544;DHT22;17996;51.056;3.656;2022-09-25T10:28:57;14.80;99.90
27544;DHT22;17996;51.056;3.656;2022-09-25T10:31:26;14.80;99.90
27544;DHT22;17996;51.056;3.656;2022-09-25T10:34:19;14.80;99.90
27544;DHT22;17996;51.056;3.656;2022-09-25T10:36:52;14.90;99.90
27544;DHT22;17996;51.056;3.656;2022-09-25T10:39:29;14.90;99.90
27544;DHT22;17996;51.056;3.656;2022-09-25T10:41:56;15.00;99.90
27544;DHT22;17996;51.056;3.656;2022-09-25T10:44:37;15.00;99.90
27544;DHT22;17996;51.056;3.656;2022-09-25T10:50:19;15.00;99.90
27544;DHT22;17996;51.056;3.656;2022-09-25T10:52:48;15.10;99.90
27544;DHT22;17996;51.056;3.656;2022-09-25T10:55:23;15.20;99.90
27544;DHT22;17996;51.056;3.656;2022-09-25T10:58:11;15.20;99.90
27544;DHT22;17996;51.056;3.656;2022-09-25T11:00:58;15.30;99.90
27544;DHT22;17996;51.056;3.656;2022-09-25T11:03:37;15.40;99.90
27544;DHT22;17996;51.056;3.656;2022-09-25T11:06:36;15.30;99.90
27544;DHT22;17996;51.056;3.656;2022-09-25T11:09:13;15.30;99.90
27544;DHT22;17996;51.056;3.656;2022-09-25T11:11:40;15.40;99.90
27544;DHT22;17996;51.056;3.656;2022-09-25T11:14:15;15.40;99.90
27544;DHT22;17996;51.056;3.656;2022-09-25T11:16:52;15.50;99.90
27544;DHT22;17996;51.056;3.656;2022-09-25T11:19:28;15.50;99.90
27544;DHT22;17996;51.056;3.656;2022-09-25T11:25:14;15.70;99.90
27544;DHT22;17996;51.056;3.656;2022-09-25T11:27:23;15.80;99.90
27544;DHT22;17996;51.056;3.656;2022-09-25T11:29:56;16.00;99.90
27544;DHT22;17996;51.056;3.656;2022-09-25T11:35:41;16.50;99.90
27544;DHT22;17996;51.056;3.656;2022-09-25T11:46:24;17.10;99.90
27544;DHT22;17996;51.056;3.656;2022-09-25T11:51:31;16.80;99.90
27544;DHT22;17996;51.056;3.656;2022-09-25T11:56:49;16.70;99.90
27544;DHT22;17996;51.056;3.656;2022-09-25T12:02:23;16.60;99.90
27544;DHT22;17996;51.056;3.656;2022-09-25T12:21:20;16.90;99.90
27544;DHT22;17996;51.056;3.656;2022-09-25T12:35:30;17.60;99.90
27544;DHT22;17996;51.056;3.656;2022-09-25T12:40:36;17.20;99.90
27544;DHT22;17996;51.056;3.656;2022-09-25T12:43:20;17.00;99.90
27544;DHT22;17996;51.056;3.656;2022-09-25T12:46:28;16.80;99.90
27544;DHT22;17996;51.056;3.656;2022-09-25T12:59:52;16.30;99.90
27544;DHT22;17996;51.056;3.656;2022-09-25T13:05:09;16.20;99.90
27544;DHT22;17996;51.056;3.656;2022-09-25T13:10:43;16.40;99.90
27544;DHT22;17996;51.056;3.656;2022-09-25T13:13:23;16.60;99.90
27544;DHT22;17996;51.056;3.656;2022-09-25T13:15:57;16.90;99.90
27544;DHT22;17996;51.056;3.656;2022-09-25T13:18:26;17.10;99.90
27544;DHT22;17996;51.056;3.656;2022-09-25T13:20:54;17.30;99.90
27544;DHT22;17996;51.056;3.656;2022-09-25T13:23:35;17.50;99.90
27544;DHT22;17996;51.056;3.656;2022-09-25T13:26:15;17.70;99.90
27544;DHT22;17996;51.056;3.656;2022-09-25T13:29:00;17.90;99.90
27544;DHT22;17996;51.056;3.656;2022-09-25T13:31:31;18.10;99.90
27544;DHT22;17996;51.056;3.656;2022-09-25T13:36:33;18.10;99.90
27544;DHT22;17996;51.056;3.656;2022-09-25T13:39:05;18.20;99.90
27544;DHT22;17996;51.056;3.656;2022-09-25T13:42:02;18.40;99.90
27544;DHT22;17996;51.056;3.656;2022-09-25T13:55:18;17.60;99.90
27544;DHT22;17996;51.056;3.656;2022-09-25T13:58:15;17.50;99.90
27544;DHT22;17996;51.056;3.656;2022-09-25T14:03:36;17.30;99.90
27544;DHT22;17996;51.056;3.656;2022-09-25T14:06:04;17.40;99.90
27544;DHT22;17996;51.056;3.656;2022-09-25T14:08:39;17.40;99.90
27544;DHT22;17996;51.056;3.656;2022-09-25T14:11:08;17.70;99.90
27544;DHT22;17996;51.056;3.656;2022-09-25T14:13:36;17.70;99.90
27544;DHT22;17996;51.056;3.656;2022-09-25T14:16:11;17.80;99.90
27544;DHT22;17996;51.056;3.656;2022-09-25T14:18:42;17.90;99.90
27544;DHT22;17996;51.056;3.656;2022-09-25T14:21:13;17.90;99.90
27544;DHT22;17996;51.056;3.656;2022-09-25T14:23:51;18.00;99.90
27544;DHT22;17996;51.056;3.656;2022-09-25T14:26:27;18.10;99.90
27544;DHT22;17996;51.056;3.656;2022-09-25T14:28:55;18.10;99.90
27544;DHT22;17996;51.056;3.656;2022-09-25T14:34:07;17.80;99.90
27544;DHT22;17996;51.056;3.656;2022-09-25T14:48:03;18.10;99.90
27544;DHT22;17996;51.056;3.656;2022-09-25T14:50:36;18.00;99.90
27544;DHT22;17996;51.056;3.656;2022-09-25T14:53:05;17.90;99.90
27544;DHT22;17996;51.056;3.656;2022-09-25T14:55:42;17.60;99.90
27544;DHT22;17996;51.056;3.656;2022-09-25T14:58:16;17.60;99.90
27544;DHT22;17996;51.056;3.656;2022-09-25T15:00:51;17.50;99.90
27544;DHT22;17996;51.056;3.656;2022-09-25T15:03:20;17.30;99.90
27544;DHT22;17996;51.056;3.656;2022-09-25T15:05:48;17.20;99.90
27544;DHT22;17996;51.056;3.656;2022-09-25T15:08:40;16.90;99.90
27544;DHT22;17996;51.056;3.656;2022-09-25T15:11:11;16.80;99.90
27544;DHT22;17996;51.056;3.656;2022-09-25T15:13:37;16.70;99.90
27544;DHT22;17996;51.056;3.656;2022-09-25T15:16:04;16.60;99.90
27544;DHT22;17996;51.056;3.656;2022-09-25T15:18:54;16.50;99.90
27544;DHT22;17996;51.056;3.656;2022-09-25T15:21:31;16.40;99.90
27544;DHT22;17996;51.056;3.656;2022-09-25T15:24:03;16.40;99.90
27544;DHT22;17996;51.056;3.656;2022-09-25T15:26:30;16.30;99.90
27544;DHT22;17996;51.056;3.656;2022-09-25T15:28:56;16.40;99.90
27544;DHT22;17996;51.056;3.656;2022-09-25T15:31:22;16.40;99.90
27544;DHT22;17996;51.056;3.656;2022-09-25T15:34:25;16.40;99.90
27544;DHT22;17996;51.056;3.656;2022-09-25T15:36:52;16.30;99.90
27544;DHT22;17996;51.056;3.656;2022-09-25T15:39:24;16.30;99.90
27544;DHT22;17996;51.056;3.656;2022-09-25T15:41:52;16.40;99.90
27544;DHT22;17996;51.056;3.656;2022-09-25T15:44:25;16.40;99.90
27544;DHT22;17996;51.056;3.656;2022-09-25T15:46:55;16.40;99.90
27544;DHT22;17996;51.056;3.656;2022-09-25T15:52:00;16.70;99.90
27544;DHT22;17996;51.056;3.656;2022-09-25T15:57:00;16.70;99.90
27544;DHT22;17996;51.056;3.656;2022-09-25T15:59:37;16.70;99.90
27544;DHT22;17996;51.056;3.656;2022-09-25T16:02:24;16.70;99.90
27544;DHT22;17996;51.056;3.656;2022-09-25T16:05:10;16.80;99.90
27544;DHT22;17996;51.056;3.656;2022-09-25T16:07:38;16.80;99.90
27544;DHT22;17996;51.056;3.656;2022-09-25T16:17:52;16.60;99.90
27544;DHT22;17996;51.056;3.656;2022-09-25T16:22:58;16.50;99.90
27544;DHT22;17996;51.056;3.656;2022-09-25T16:25:34;16.50;99.90
27544;DHT22;17996;51.056;3.656;2022-09-25T16:30:35;16.40;99.90
27544;DHT22;17996;51.056;3.656;2022-09-25T16:33:07;16.40;99.90
27544;DHT22;17996;51.056;3.656;2022-09-25T16:35:37;16.40;99.90
27544;DHT22;17996;51.056;3.656;2022-09-25T16:38:04;16.30;99.90
27544;DHT22;17996;51.056;3.656;2022-09-25T16:40:31;16.30;99.90
27544;DHT22;17996;51.056;3.656;2022-09-25T16:43:08;16.30;99.90
27544;DHT22;17996;51.056;3.656;2022-09-25T16:46:01;16.20;99.90
27544;DHT22;17996;51.056;3.656;2022-09-25T16:48:33;16.10;99.90
27544;DHT22;17996;51.056;3.656;2022-09-25T16:51:00;16.00;99.90
27544;DHT22;17996;51.056;3.656;2022-09-25T16:53:26;15.90;99.90
27544;DHT22;17996;51.056;3.656;2022-09-25T16:55:52;15.90;99.90
27544;DHT22;17996;51.056;3.656;2022-09-25T16:58:19;15.80;99.90
27544;DHT22;17996;51.056;3.656;2022-09-25T17:00:46;15.80;99.90
27544;DHT22;17996;51.056;3.656;2022-09-25T17:03:12;15.80;99.90
27544;DHT22;17996;51.056;3.656;2022-09-25T17:05:38;15.80;99.90
27544;DHT22;17996;51.056;3.656;2022-09-25T17:08:20;15.80;99.90
27544;DHT22;17996;51.056;3.656;2022-09-25T17:10:50;15.80;99.90
27544;DHT22;17996;51.056;3.656;2022-09-25T17:13:20;15.70;99.90
27544;DHT22;17996;51.056;3.656;2022-09-25T17:15:48;15.70;99.90
27544;DHT22;17996;51.056;3.656;2022-09-25T17:18:18;15.80;99.90
27544;DHT22;17996;51.056;3.656;2022-09-25T17:20:44;15.80;99.90
27544;DHT22;17996;51.056;3.656;2022-09-25T17:23:10;15.70;99.90
27544;DHT22;17996;51.056;3.656;2022-09-25T17:25:54;15.80;99.90
27544;DHT22;17996;51.056;3.656;2022-09-25T17:28:25;15.70;99.90
27544;DHT22;17996;51.056;3.656;2022-09-25T17:30:50;15.70;99.90
27544;DHT22;17996;51.056;3.656;2022-09-25T17:33:18;15.60;99.90
27544;DHT22;17996;51.056;3.656;2022-09-25T17:36:04;15.60;99.90
27544;DHT22;17996;51.056;3.656;2022-09-25T17:38:32;15.60;99.90
27544;DHT22;17996;51.056;3.656;2022-09-25T17:41:03;15.60;99.90
27544;DHT22;17996;51.056;3.656;2022-09-25T17:43:29;15.60;99.90
27544;DHT22;17996;51.056;3.656;2022-09-25T17:45:57;15.60;99.90
27544;DHT22;17996;51.056;3.656;2022-09-25T17:48:28;15.60;99.90
27544;DHT22;17996;51.056;3.656;2022-09-25T17:50:59;15.60;99.90
27544;DHT22;17996;51.056;3.656;2022-09-25T17:53:32;15.60;99.90
27544;DHT22;17996;51.056;3.656;2022-09-25T17:55:59;15.40;99.90
27544;DHT22;17996;51.056;3.656;2022-09-25T17:58:27;15.30;99.90
27544;DHT22;17996;51.056;3.656;2022-09-25T18:00:53;15.10;99.90
27544;DHT22;17996;51.056;3.656;2022-09-25T18:03:20;15.20;99.90
27544;DHT22;17996;51.056;3.656;2022-09-25T18:05:46;15.10;99.90
27544;DHT22;17996;51.056;3.656;2022-09-25T18:08:12;15.10;99.90
27544;DHT22;17996;51.056;3.656;2022-09-25T18:10:39;15.10;99.90
27544;DHT22;17996;51.056;3.656;2022-09-25T18:13:09;15.10;99.90
27544;DHT22;17996;51.056;3.656;2022-09-25T18:15:35;15.00;99.90
27544;DHT22;17996;51.056;3.656;2022-09-25T18:18:02;14.90;99.90
27544;DHT22;17996;51.056;3.656;2022-09-25T18:20:28;14.80;99.90
27544;DHT22;17996;51.056;3.656;2022-09-25T18:23:12;14.80;99.90
27544;DHT22;17996;51.056;3.656;2022-09-25T18:25:39;14.80;99.90
27544;DHT22;17996;51.056;3.656;2022-09-25T18:28:06;14.70;99.90
27544;DHT22;17996;51.056;3.656;2022-09-25T18:30:32;14.70;99.90
27544;DHT22;17996;51.056;3.656;2022-09-25T18:32:58;14.70;99.90
27544;DHT22;17996;51.056;3.656;2022-09-25T18:35:23;14.60;99.90
27544;DHT22;17996;51.056;3.656;2022-09-25T18:37:49;14.60;99.90
27544;DHT22;17996;51.056;3.656;2022-09-25T18:40:17;14.60;99.90
27544;DHT22;17996;51.056;3.656;2022-09-25T18:42:44;14.70;99.90
27544;DHT22;17996;51.056;3.656;2022-09-25T18:45:12;14.70;99.90